Time;durP1;ratioP1;P1;durP2;ratioP2;P2;SDS_P1;SDS_P2;PMS_P1;PMS_P2;Temp;Humidity;BMP_temperature;BMP_pressure;BME280_temperature;BME280_humidity;BME280_pressure;Samples;Min_cycle;Max_cycle;Signal;HPM_P1;HPM_P2
2021/05/02 00:00:35;;;;;;;19.93;13.80;;;;;;;5.71;84.47;100919.06;5092525;28;20577;-70
2021/05/02 00:03:03;;;;;;;21.23;13.63;;;;;;;5.64;83.99;100909.94;5074566;28;20044;-70
2021/05/02 00:05:30;;;;;;;20.05;14.23;;;;;;;5.57;84.18;100919.34;5092493;28;20085;-70
2021/05/02 00:07:57;;;;;;;25.92;14.18;;;;;;;5.52;84.15;100921.53;5092011;28;20039;-69
2021/05/02 00:10:25;;;;;;;22.33;14.18;;;;;;;5.47;84.28;100920.09;5074113;28;20024;-70
2021/05/02 00:12:50;;;;;;;21.70;13.57;;;;;;;5.42;84.18;100911.69;5092164;28;20044;-70
2021/05/02 00:15:19;;;;;;;18.73;13.82;;;;;;;5.36;83.79;100912.22;5057404;28;20035;-70
2021/05/02 00:17:47;;;;;;;19.27;12.85;;;;;;;5.31;83.88;100917.00;5091712;28;20073;-69
2021/05/02 00:20:15;;;;;;;22.67;14.40;;;;;;;5.26;84.14;100914.72;5092129;28;20036;-70
2021/05/02 00:22:46;;;;;;;23.52;14.98;;;;;;;5.22;83.86;100915.09;5092027;28;20369;-70
2021/05/02 00:25:14;;;;;;;25.60;14.40;;;;;;;5.13;84.28;100918.50;5074106;28;20135;-70
2021/05/02 00:27:41;;;;;;;21.17;13.98;;;;;;;5.09;84.32;100909.97;5073713;28;20039;-70
2021/05/02 00:30:07;;;;;;;23.27;14.70;;;;;;;5.08;84.44;100911.78;5073984;28;20613;-70
2021/05/02 00:32:33;;;;;;;23.58;14.32;;;;;;;5.11;84.31;100912.50;5091404;28;20067;-70
2021/05/02 00:34:59;;;;;;;;;;;;;;;5.08;84.40;100906.50;5074490;28;20044;-70
2021/05/02 00:37:25;;;;;;;;;;;;;;;5.05;84.59;100908.53;5074186;28;19927;-70
2021/05/02 00:39:50;;;;;;;21.98;13.70;;;;;;;5.01;84.97;100904.44;5073831;28;19981;-70
2021/05/02 00:42:25;;;;;;;25.25;15.48;;;;;;;4.91;84.43;100903.50;5091546;28;20050;-70
2021/05/02 00:45:07;;;;;;;19.90;13.07;;;;;;;4.86;84.91;100898.56;5057253;28;20089;-71
2021/05/02 00:47:36;;;;;;;26.27;16.38;;;;;;;4.84;84.92;100903.13;5091305;28;20028;-70
2021/05/02 00:50:09;;;;;;;22.45;15.25;;;;;;;4.81;84.91;100901.59;5091549;28;20075;-70
2021/05/02 00:52:45;;;;;;;28.33;15.02;;;;;;;4.83;85.21;100901.47;5090910;28;20036;-70
2021/05/02 00:55:13;;;;;;;21.67;14.05;;;;;;;4.79;84.83;100892.09;5091560;28;20078;-71
2021/05/02 00:58:00;;;;;;;21.52;14.25;;;;;;;4.77;84.96;100899.28;5073319;28;20032;-70
2021/05/02 01:00:29;;;;;;;20.67;13.23;;;;;;;4.74;84.92;100897.75;5073552;28;20032;-70
2021/05/02 01:02:56;;;;;;;21.27;13.60;;;;;;;4.73;84.94;100892.56;5073469;28;20032;-70
2021/05/02 01:05:22;;;;;;;24.17;15.32;;;;;;;4.70;85.04;100906.03;5091247;28;20596;-70
2021/05/02 01:07:54;;;;;;;23.10;14.65;;;;;;;4.74;85.74;100896.91;5090955;28;20031;-70
2021/05/02 01:10:19;;;;;;;21.08;13.70;;;;;;;4.71;85.68;100892.69;5073264;28;20066;-70
2021/05/02 01:12:49;;;;;;;17.75;10.88;;;;;;;4.68;85.23;100886.78;5091142;28;20035;-70
2021/05/02 01:15:25;;;;;;;22.23;12.73;;;;;;;4.65;85.10;100886.06;5091362;28;20059;-70
2021/05/02 01:18:05;;;;;;;23.42;14.35;;;;;;;4.65;85.04;100885.25;5090837;28;20043;-70
2021/05/02 01:20:33;;;;;;;21.70;15.45;;;;;;;4.65;85.25;100877.31;5091135;28;20040;-70
2021/05/02 01:23:05;;;;;;;25.30;14.52;;;;;;;4.63;85.01;100871.28;5091109;28;20047;-70
2021/05/02 01:25:32;;;;;;;21.50;12.43;;;;;;;4.65;85.17;100879.94;5091148;28;20135;-70
2021/05/02 01:27:59;;;;;;;20.35;13.38;;;;;;;4.65;85.09;100872.84;5072924;28;20138;-69
2021/05/02 01:30:26;;;;;;;21.83;14.25;;;;;;;4.64;85.14;100871.19;5090884;28;20036;-70
2021/05/02 01:32:52;;;;;;;22.92;13.75;;;;;;;4.60;85.29;100872.38;5073380;28;20040;-70
2021/05/02 01:35:17;;;;;;;21.25;13.52;;;;;;;4.61;85.32;100874.06;5091031;28;20128;-70
2021/05/02 01:37:44;;;;;;;20.57;14.00;;;;;;;4.67;85.53;100877.19;5072980;28;20028;-70
2021/05/02 01:40:11;;;;;;;23.50;15.02;;;;;;;4.72;85.34;100875.03;5056531;28;20375;-70
2021/05/02 01:42:36;;;;;;;;;;;;;;;4.76;85.47;100868.53;5073560;28;20061;-71
2021/05/02 01:45:02;;;;;;;;;;;;;;;4.82;85.88;100860.09;5091383;28;19920;-71
2021/05/02 01:47:29;;;;;;;22.42;13.40;;;;;;;4.82;85.69;100865.38;5056339;28;19923;-71
2021/05/02 01:50:07;;;;;;;22.60;13.07;;;;;;;4.81;85.66;100869.00;5090827;28;20118;-71
2021/05/02 01:52:35;;;;;;;24.77;14.43;;;;;;;4.85;86.08;100870.44;5090951;28;20413;-71
2021/05/02 01:55:03;;;;;;;24.33;15.63;;;;;;;4.87;85.87;100865.88;5090826;28;20119;-71
2021/05/02 01:57:30;;;;;;;24.42;15.63;;;;;;;4.92;86.10;100876.94;5072760;28;20068;-71
2021/05/02 01:59:59;;;;;;;25.70;14.95;;;;;;;4.97;86.47;100871.28;5073087;28;20032;-71
2021/05/02 02:02:31;;;;;;;24.25;14.90;;;;;;;5.03;86.35;100868.97;5090770;28;20086;-71
2021/05/02 02:04:57;;;;;;;28.52;17.15;;;;;;;5.07;86.30;100867.75;5092180;28;20039;-70
2021/05/02 02:07:24;;;;;;;27.70;16.92;;;;;;;5.11;86.83;100864.88;5094531;28;20036;-71
2021/05/02 02:09:51;;;;;;;31.02;18.30;;;;;;;5.15;86.81;100867.16;5076366;28;20046;-71
2021/05/02 02:12:17;;;;;;;25.77;14.48;;;;;;;5.18;86.94;100866.06;5076718;28;20052;-70
2021/05/02 02:14:43;;;;;;;25.17;16.15;;;;;;;5.18;86.81;100869.53;5094416;28;20089;-71
2021/05/02 02:17:09;;;;;;;27.98;17.40;;;;;;;5.19;87.08;100863.25;5076515;28;20032;-71
2021/05/02 02:19:36;;;;;;;26.70;15.05;;;;;;;5.24;87.24;100861.09;5076293;28;20036;-71
2021/05/02 02:22:03;;;;;;;26.35;16.05;;;;;;;5.28;87.46;100859.03;5076594;28;20488;-70
2021/05/02 02:24:38;;;;;;;25.98;16.88;;;;;;;5.29;87.30;100860.69;5076259;28;20035;-70
2021/05/02 02:27:07;;;;;;;25.50;16.17;;;;;;;5.31;87.36;100865.88;5076581;28;20036;-71
2021/05/02 02:29:33;;;;;;;24.13;14.80;;;;;;;5.31;87.17;100861.41;5093891;28;20048;-71
2021/05/02 02:32:03;;;;;;;24.42;15.98;;;;;;;5.30;87.13;100854.47;5094143;28;20100;-71
2021/05/02 02:34:29;;;;;;;31.67;17.45;;;;;;;5.29;87.15;100855.41;5094200;28;20036;-71
2021/05/02 02:36:54;;;;;;;24.00;15.65;;;;;;;5.31;87.40;100860.59;5094063;28;20040;-71
2021/05/02 02:39:20;;;;;;;30.43;16.83;;;;;;;5.28;87.67;100862.50;5076002;28;20040;-71
2021/05/02 02:41:46;;;;;;;27.17;15.73;;;;;;;5.29;87.56;100864.22;5094048;28;20046;-71
2021/05/02 02:44:11;;;;;;;25.42;16.70;;;;;;;5.31;87.78;100864.06;5076085;28;20038;-71
2021/05/02 02:46:41;;;;;;;26.73;17.53;;;;;;;5.29;87.84;100866.00;5093999;28;20373;-71
2021/05/02 02:49:10;;;;;;;26.90;17.25;;;;;;;5.33;88.25;100872.72;5093720;28;20036;-71
2021/05/02 02:51:38;;;;;;;29.33;17.85;;;;;;;5.34;88.04;100869.13;5075875;28;20036;-71
2021/05/02 02:54:07;;;;;;;29.77;17.13;;;;;;;5.36;88.29;100871.63;5075994;28;20578;-71
2021/05/02 02:56:34;;;;;;;27.52;17.67;;;;;;;5.41;88.54;100869.47;5093754;28;20115;-71
2021/05/02 02:59:17;;;;;;;26.70;16.88;;;;;;;5.42;88.24;100863.19;5075640;28;20031;-71
2021/05/02 03:01:46;;;;;;;26.25;17.73;;;;;;;5.40;88.20;100870.41;5075843;28;20036;-71
2021/05/02 03:04:18;;;;;;;27.27;16.50;;;;;;;5.38;88.19;100867.88;5059162;28;20044;-71
2021/05/02 03:06:44;;;;;;;25.88;15.65;;;;;;;5.38;88.08;100862.59;5075764;28;20062;-70
2021/05/02 03:09:10;;;;;;;;;;;;;;;5.35;88.27;100868.16;5075998;28;20107;-71
2021/05/02 03:11:36;;;;;;;25.38;16.13;;;;;;;5.35;88.55;100868.16;5058780;28;19920;-71
2021/05/02 03:14:02;;;;;;;29.23;16.48;;;;;;;5.41;88.77;100861.53;5058840;28;20036;-70
2021/05/02 03:16:29;;;;;;;32.33;17.58;;;;;;;5.44;88.77;100867.41;5092782;28;20032;-71
2021/05/02 03:19:13;;;;;;;32.67;19.90;;;;;;;5.40;88.79;100875.72;5093189;28;20055;-71
2021/05/02 03:21:51;;;;;;;31.92;19.48;;;;;;;5.39;88.95;100874.06;5093243;28;20032;-71
2021/05/02 03:24:25;;;;;;;27.02;16.77;;;;;;;5.40;88.87;100873.91;5093308;28;20035;-71
2021/05/02 03:26:56;;;;;;;27.38;16.83;;;;;;;5.43;88.98;100876.31;5075311;28;20470;-71
2021/05/02 03:29:25;;;;;;;27.48;17.35;;;;;;;5.44;88.97;100882.44;5092838;28;20052;-71
2021/05/02 03:31:52;;;;;;;30.15;18.20;;;;;;;5.44;88.89;100882.44;5075161;28;20038;-71
2021/05/02 03:34:22;;;;;;;32.38;18.80;;;;;;;5.43;88.72;100878.09;5058489;28;20032;-71
2021/05/02 03:36:52;;;;;;;27.08;17.67;;;;;;;5.42;88.90;100885.22;5075006;28;20389;-71
2021/05/02 03:39:17;;;;;;;32.17;17.77;;;;;;;5.42;88.69;100884.38;5074809;28;20032;-71
2021/05/02 03:41:43;;;;;;;26.42;15.38;;;;;;;5.41;88.54;100885.38;5075123;28;20042;-71
2021/05/02 03:44:08;;;;;;;30.00;16.97;;;;;;;5.41;88.46;100883.53;5092827;28;20188;-71
2021/05/02 03:46:34;;;;;;;27.95;16.88;;;;;;;5.37;88.41;100886.56;5074802;28;20039;-70
2021/05/02 03:49:05;;;;;;;29.00;17.70;;;;;;;5.35;88.73;100880.56;5092492;28;20035;-71
2021/05/02 03:51:34;;;;;;;25.48;17.67;;;;;;;5.39;88.89;100885.47;5049841;28;20488;-71
2021/05/02 03:54:00;;;;;;;25.80;17.63;;;;;;;5.50;88.84;100889.88;5092476;28;20024;-71
2021/05/02 03:56:39;;;;;;;31.00;18.42;;;;;;;5.55;89.03;100889.50;5074713;28;20542;-71
2021/05/02 03:59:17;;;;;;;25.05;15.65;;;;;;;5.61;88.86;100886.34;5092171;28;20040;-71
2021/05/02 04:01:53;;;;;;;27.73;17.60;;;;;;;5.64;88.78;100892.25;5092308;28;20031;-71
2021/05/02 04:04:24;;;;;;;24.15;16.75;;;;;;;5.77;88.82;100894.72;5092392;28;20466;-71
2021/05/02 04:06:49;;;;;;;31.15;19.70;;;;;;;5.81;88.36;100890.84;5092382;28;20477;-71
2021/05/02 04:09:16;;;;;;;30.77;18.67;;;;;;;5.83;88.52;100898.63;5074247;28;20049;-71
2021/05/02 04:11:42;;;;;;;40.20;21.92;;;;;;;5.76;88.52;100887.75;5057544;28;20036;-71
2021/05/02 04:14:10;;;;;;;31.15;19.83;;;;;;;5.76;88.68;100895.69;5074367;28;20032;-70
2021/05/02 04:16:36;;;;;;;32.13;19.50;;;;;;;5.84;88.76;100895.88;5092269;28;20119;-71
2021/05/02 04:19:03;;;;;;;27.73;18.30;;;;;;;5.89;89.05;100893.69;5074040;28;20123;-71
2021/05/02 04:21:29;;;;;;;33.05;18.67;;;;;;;5.91;89.04;100907.63;5074134;28;20039;-71
2021/05/02 04:23:55;;;;;;;30.77;19.92;;;;;;;5.99;89.09;100900.88;5057571;28;20391;-71
2021/05/02 04:26:20;;;;;;;31.53;19.50;;;;;;;5.97;88.88;100900.16;5091995;28;20106;-71
2021/05/02 04:28:46;;;;;;;31.30;18.98;;;;;;;5.98;88.98;100897.41;5090871;28;20036;-71
2021/05/02 04:31:12;;;;;;;32.42;19.40;;;;;;;6.03;89.22;100897.84;5073937;28;20055;-71
2021/05/02 04:33:37;;;;;;;30.00;18.63;;;;;;;6.11;88.90;100902.50;5091712;28;20039;-71
2021/05/02 04:36:03;;;;;;;29.60;18.10;;;;;;;6.05;88.56;100893.25;5091882;28;20046;-71
2021/05/02 04:38:28;;;;;;;29.60;19.55;;;;;;;6.09;89.19;100894.69;5091463;28;20036;-71
2021/05/02 04:40:54;;;;;;;30.30;17.30;;;;;;;6.14;89.19;100894.31;5074020;28;20101;-71
2021/05/02 04:43:19;;;;;;;23.73;13.57;;;;;;;6.18;89.28;100897.53;5073924;28;20051;-71
2021/05/02 04:45:44;;;;;;;32.07;18.87;;;;;;;6.16;88.90;100896.81;5091752;28;20149;-71
2021/05/02 04:48:10;;;;;;;29.13;19.20;;;;;;;6.12;88.63;100898.88;5091232;28;20028;-71
2021/05/02 04:50:35;;;;;;;30.30;18.87;;;;;;;6.18;89.09;100897.53;5091587;28;20773;-71
2021/05/02 04:53:01;;;;;;;28.17;18.03;;;;;;;6.20;89.07;100896.41;5091584;28;20055;-71
2021/05/02 04:55:27;;;;;;;27.67;17.58;;;;;;;6.27;89.11;100896.75;5091580;28;20032;-71
2021/05/02 04:57:53;;;;;;;28.67;17.55;;;;;;;6.31;89.12;100899.00;5073483;28;20525;-71
2021/05/02 05:00:19;;;;;;;31.57;18.10;;;;;;;6.39;88.74;100892.19;5091628;28;20028;-71
2021/05/02 05:02:45;;;;;;;;;;;;;;;6.48;88.26;100899.38;5091867;28;20333;-71
2021/05/02 05:05:10;;;;;;;25.50;14.85;;;;;;;6.49;87.54;100899.25;5073704;28;20416;-71
2021/05/02 05:07:35;;;;;;;30.13;17.10;;;;;;;6.42;87.49;100894.59;5091203;28;20032;-71
2021/05/02 05:10:01;;;;;;;27.87;18.67;;;;;;;6.37;87.51;100902.97;5091429;28;20040;-71
2021/05/02 05:12:26;;;;;;;28.17;17.07;;;;;;;6.44;87.76;100897.94;5091344;28;20048;-64
2021/05/02 05:14:52;;;;;;;26.57;18.80;;;;;;;6.48;88.00;100907.31;5091402;28;20046;-65
2021/05/02 05:17:17;;;;;;;24.73;16.47;;;;;;;6.51;87.95;100899.94;5091274;28;20412;-64
2021/05/02 05:19:43;;;;;;;25.80;17.13;;;;;;;6.57;87.57;100911.00;5091208;28;20032;-64
2021/05/02 05:22:08;;;;;;;25.70;16.98;;;;;;;6.53;87.41;100911.28;5091326;28;20044;-64
2021/05/02 05:24:34;;;;;;;29.87;18.33;;;;;;;6.71;88.03;100906.16;5073465;28;20048;-64
2021/05/02 05:26:59;;;;;;;28.03;17.53;;;;;;;6.78;87.42;100910.94;5073535;28;20028;-65
2021/05/02 05:29:24;;;;;;;22.20;13.97;;;;;;;6.86;86.48;100903.16;5090942;28;20465;-64
2021/05/02 05:31:50;;;;;;;23.10;14.70;;;;;;;6.95;85.93;100908.50;5073424;28;20505;-65
2021/05/02 05:34:16;;;;;;;26.07;16.23;;;;;;;6.99;85.48;100898.44;5091010;28;20617;-65
2021/05/02 05:36:41;;;;;;;26.00;15.57;;;;;;;6.98;85.17;100897.63;5091273;28;20396;-65
2021/05/02 05:39:07;;;;;;;24.38;15.55;;;;;;;7.03;85.60;100902.53;5092691;28;20040;-65
2021/05/02 05:41:33;;;;;;;23.40;15.53;;;;;;;7.09;85.38;100904.59;5095342;28;20077;-65
2021/05/02 05:43:58;;;;;;;24.83;16.08;;;;;;;7.17;84.73;100907.44;5077378;28;20396;-65
2021/05/02 05:46:23;;;;;;;25.30;16.17;;;;;;;7.18;83.95;100906.44;5077380;28;20123;-64
2021/05/02 05:48:49;;;;;;;24.50;15.10;;;;;;;7.27;83.97;100911.94;5094398;28;20373;-65
2021/05/02 05:51:14;;;;;;;23.30;14.60;;;;;;;7.17;82.45;100919.88;5077240;28;20032;-65
2021/05/02 05:53:40;;;;;;;24.43;14.13;;;;;;;7.23;82.43;100916.66;5095117;28;20131;-65
2021/05/02 05:56:05;;;;;;;25.03;15.87;;;;;;;7.23;83.38;100921.13;5094480;28;20039;-65
2021/05/02 05:58:32;;;;;;;30.27;19.20;;;;;;;7.25;83.65;100928.00;5094668;28;20063;-65
2021/05/02 06:00:58;;;;;;;34.92;21.90;;;;;;;6.98;84.02;100932.13;5094906;28;20079;-65
2021/05/02 06:03:24;;;;;;;34.55;22.50;;;;;;;6.94;85.44;100929.88;5094829;28;20105;-65
2021/05/02 06:05:50;;;;;;;34.93;23.70;;;;;;;7.04;85.63;100938.69;5094782;28;20044;-65
2021/05/02 06:08:15;;;;;;;36.78;24.42;;;;;;;6.98;85.30;100929.47;5094518;28;20032;-65
2021/05/02 06:10:41;;;;;;;44.50;27.17;;;;;;;7.01;85.33;100928.34;5094556;28;20040;-65
2021/05/02 06:13:06;;;;;;;43.33;27.77;;;;;;;6.97;85.54;100938.38;5094626;28;20097;-65
2021/05/02 06:15:31;;;;;;;49.20;29.57;;;;;;;7.00;85.17;100941.75;5060154;28;20036;-64
2021/05/02 06:17:57;;;;;;;45.00;29.23;;;;;;;7.09;85.58;100941.78;5076552;28;20361;-64
2021/05/02 06:20:22;;;;;;;41.73;24.97;;;;;;;7.29;85.19;100947.16;5076798;28;20075;-65
2021/05/02 06:22:49;;;;;;;47.90;26.17;;;;;;;7.32;84.45;100944.22;5094174;28;20042;-65
2021/05/02 06:25:14;;;;;;;;;;;;;;;7.33;84.57;100938.78;5094761;28;20032;-64
2021/05/02 06:27:39;;;;;;;;;;;;;;;7.33;83.72;100935.31;5094415;28;19918;-64
2021/05/02 06:30:06;;;;;;;46.47;28.77;;;;;;;7.23;84.23;100937.06;5094256;28;19978;-65
2021/05/02 06:32:31;;;;;;;;;;;;;;;7.29;84.26;100926.75;5094526;28;20067;-65
2021/05/02 06:34:58;;;;;;;49.13;30.88;;;;;;;7.31;83.45;100929.28;5059684;28;20020;-64
2021/05/02 06:37:24;;;;;;;49.88;30.65;;;;;;;7.31;84.20;100932.78;5094033;28;20050;-64
2021/05/02 06:39:49;;;;;;;56.08;32.97;;;;;;;7.23;84.53;100931.75;5093897;28;20028;-64
2021/05/02 06:42:14;;;;;;;57.37;33.37;;;;;;;7.29;84.73;100941.84;5075787;28;20036;-65
2021/05/02 06:44:40;;;;;;;59.53;33.20;;;;;;;7.12;84.42;100935.38;5093878;28;20028;-64
2021/05/02 06:47:05;;;;;;;55.83;33.40;;;;;;;7.15;84.01;100935.09;5059211;28;20040;-65
2021/05/02 06:49:31;;;;;;;57.60;34.10;;;;;;;7.24;83.97;100936.94;5093617;28;20036;-65
2021/05/02 06:51:56;;;;;;;61.50;34.97;;;;;;;7.34;83.57;100935.16;5093000;28;20036;-64
2021/05/02 06:54:22;;;;;;;62.67;37.70;;;;;;;7.51;83.94;100930.97;5076005;28;20468;-65
2021/05/02 06:56:47;;;;;;;62.83;35.87;;;;;;;7.54;83.56;100935.19;5075880;28;20046;-64
2021/05/02 06:59:12;;;;;;;55.43;33.67;;;;;;;7.70;83.84;100945.25;5093378;28;20036;-65
2021/05/02 07:01:38;;;;;;;59.43;35.50;;;;;;;7.82;82.90;100938.84;5075706;28;20115;-64
2021/05/02 07:04:03;;;;;;;54.20;32.87;;;;;;;7.85;81.97;100938.56;5093673;28;20036;-64
2021/05/02 07:06:29;;;;;;;56.90;34.53;;;;;;;7.86;81.89;100932.25;5075901;28;20036;-64
2021/05/02 07:08:54;;;;;;;59.93;35.53;;;;;;;8.07;81.13;100928.59;5093222;28;20051;-65
2021/05/02 07:11:21;;;;;;;58.33;36.40;;;;;;;8.15;80.74;100932.25;5093403;28;20024;-64
2021/05/02 07:13:46;;;;;;;54.97;33.53;;;;;;;8.22;80.23;100937.84;5093103;28;20040;-65
2021/05/02 07:16:12;;;;;;;60.60;34.93;;;;;;;8.27;80.57;100932.91;5058781;28;20058;-64
2021/05/02 07:18:39;;;;;;;42.37;25.80;;;;;;;8.15;79.52;100936.72;5093122;28;20024;-65
2021/05/02 07:21:06;;;;;;;61.50;34.50;;;;;;;8.25;80.18;100929.56;5074002;28;20040;-65
2021/05/02 07:23:32;;;;;;;58.42;35.15;;;;;;;8.41;79.10;100940.47;5074782;28;20575;-65
2021/05/02 07:25:58;;;;;;;56.55;34.90;;;;;;;8.30;79.01;100940.59;5074704;28;20750;-65
2021/05/02 07:28:23;;;;;;;57.67;34.40;;;;;;;8.24;79.11;100942.03;5074421;28;20123;-65
2021/05/02 07:30:49;;;;;;;56.90;35.27;;;;;;;8.04;78.82;100938.53;5092242;28;20024;-64
2021/05/02 07:33:15;;;;;;;56.72;34.28;;;;;;;8.31;79.33;100936.13;5057978;28;20449;-64
2021/05/02 07:35:41;;;;;;;62.03;33.72;;;;;;;8.38;78.25;100935.44;5057998;28;20166;-65
2021/05/02 07:38:06;;;;;;;53.17;33.67;;;;;;;8.33;78.89;100937.66;5092057;28;20480;-65
2021/05/02 07:40:32;;;;;;;54.97;32.57;;;;;;;8.51;77.48;100939.63;5074584;28;20212;-65
2021/05/02 07:42:58;;;;;;;49.40;31.98;;;;;;;8.49;78.55;100938.91;5074532;28;20121;-65
2021/05/02 07:45:23;;;;;;;53.00;32.30;;;;;;;8.69;77.25;100948.53;5092092;28;20052;-65
2021/05/02 07:47:48;;;;;;;52.40;31.80;;;;;;;8.68;77.19;100935.34;5091868;28;20036;-64
2021/05/02 07:50:14;;;;;;;55.80;31.63;;;;;;;8.69;77.40;100943.22;5057719;28;20101;-65
2021/05/02 07:52:42;;;;;;;51.83;31.38;;;;;;;8.80;76.47;100944.84;5091979;28;20056;-65
2021/05/02 07:55:08;;;;;;;48.90;30.58;;;;;;;8.90;77.15;100948.31;5074303;28;20097;-65
2021/05/02 07:57:34;;;;;;;51.17;30.98;;;;;;;8.98;76.41;100951.06;5091588;28;20036;-65
2021/05/02 07:59:59;;;;;;;50.73;31.90;;;;;;;9.12;74.61;100960.41;5057284;28;20036;-65
2021/05/02 08:02:25;;;;;;;49.90;29.92;;;;;;;9.19;75.03;100958.81;5072912;28;20040;-65
2021/05/02 08:04:50;;;;;;;46.70;28.53;;;;;;;9.35;75.58;100954.69;5091967;28;20089;-65
2021/05/02 08:07:16;;;;;;;53.80;30.30;;;;;;;9.57;73.89;100954.22;5091858;28;20040;-65
2021/05/02 08:09:41;;;;;;;49.67;30.10;;;;;;;9.65;74.68;100961.50;5091523;28;20036;-65
2021/05/02 08:12:09;;;;;;;48.85;30.05;;;;;;;9.57;73.67;100951.56;5091602;28;20031;-65
2021/05/02 08:14:34;;;;;;;46.97;29.20;;;;;;;9.25;73.86;100955.56;5091313;28;20047;-65
2021/05/02 08:17:00;;;;;;;52.05;30.15;;;;;;;9.22;74.66;100955.84;5091629;28;20048;-65
2021/05/02 08:19:26;;;;;;;47.72;29.83;;;;;;;8.94;76.21;100956.84;5073461;28;20076;-65
2021/05/02 08:21:52;;;;;;;41.28;24.13;;;;;;;8.96;75.18;100954.88;5091519;28;20032;-65
2021/05/02 08:24:17;;;;;;;36.92;23.23;;;;;;;8.97;75.21;100960.06;5073919;28;20104;-65
2021/05/02 08:26:43;;;;;;;50.37;29.70;;;;;;;9.16;75.28;100956.47;5073601;28;20036;-65
2021/05/02 08:29:08;;;;;;;45.97;29.27;;;;;;;9.37;74.29;100963.38;5090828;28;20042;-65
2021/05/02 08:31:36;;;;;;;45.63;28.47;;;;;;;9.53;73.84;100963.53;5056866;28;20028;-65
2021/05/02 08:34:02;;;;;;;45.67;28.35;;;;;;;9.68;73.56;100963.84;5056677;28;20051;-65
2021/05/02 08:36:28;;;;;;;48.05;29.38;;;;;;;9.66;73.04;100964.00;5073269;28;20031;-65
2021/05/02 08:38:53;;;;;;;40.80;26.67;;;;;;;9.65;72.92;100965.00;5090878;28;20136;-65
2021/05/02 08:41:19;;;;;;;43.72;27.23;;;;;;;9.67;71.80;100971.03;5073300;28;20028;-65
2021/05/02 08:43:50;;;;;;;44.97;26.33;;;;;;;9.63;72.61;100964.31;5073071;28;20115;-65
2021/05/02 08:46:15;;;;;;;38.03;24.63;;;;;;;9.66;71.79;100964.00;5073404;28;20512;-65
2021/05/02 08:48:41;;;;;;;43.53;26.07;;;;;;;9.91;72.27;100967.75;5090836;28;20070;-65
2021/05/02 08:51:06;;;;;;;41.87;25.93;;;;;;;10.13;70.72;100961.09;5090951;28;20505;-65
2021/05/02 08:53:32;;;;;;;37.53;23.70;;;;;;;10.32;68.77;100968.13;5091075;28;20032;-65
2021/05/02 08:56:00;;;;;;;34.90;23.63;;;;;;;10.47;68.25;100967.56;5090962;28;20125;-65
2021/05/02 08:58:25;;;;;;;36.78;23.27;;;;;;;10.47;67.35;100968.41;5072713;28;20567;-65
2021/05/02 09:00:51;;;;;;;31.70;20.70;;;;;;;10.75;66.48;100968.25;5073173;28;20207;-65
2021/05/02 09:03:17;;;;;;;31.27;19.98;;;;;;;11.45;64.36;100961.84;5073060;28;20055;-65
2021/05/02 09:05:48;;;;;;;31.38;20.77;;;;;;;11.61;62.65;100954.72;5073018;28;20035;-65
2021/05/02 09:08:34;;;;;;;31.42;21.05;;;;;;;11.61;63.50;100961.88;5090424;28;20052;-65
2021/05/02 09:11:03;;;;;;;28.77;19.67;;;;;;;11.76;61.96;100957.56;5056059;28;20441;-65
2021/05/02 09:13:29;;;;;;;28.35;18.25;;;;;;;12.40;60.25;100955.09;5090088;28;20169;-65
2021/05/02 09:15:56;;;;;;;26.67;18.80;;;;;;;13.16;56.50;100958.25;5090482;28;20051;-65
2021/05/02 09:18:33;;;;;;;26.13;17.95;;;;;;;13.08;54.28;100955.59;5090200;28;20040;-65
2021/05/02 09:20:59;;;;;;;27.05;18.85;;;;;;;12.61;55.81;100959.91;5072849;28;20177;-65
2021/05/02 09:23:34;;;;;;;33.93;23.20;;;;;;;12.27;62.50;100956.59;5090483;28;20130;-65
2021/05/02 09:25:59;;;;;;;32.87;22.60;;;;;;;12.33;62.27;100966.66;5056031;28;20377;-65
2021/05/02 09:28:46;;;;;;;36.50;23.80;;;;;;;11.94;64.11;100967.31;5090131;28;20032;-65
2021/05/02 09:31:15;;;;;;;35.55;22.83;;;;;;;11.78;64.39;100958.25;5090252;28;20076;-65
2021/05/02 09:33:40;;;;;;;34.30;23.38;;;;;;;12.20;63.68;100959.97;5072279;28;20093;-65
2021/05/02 09:36:11;;;;;;;31.92;21.08;;;;;;;12.41;63.11;100955.94;5072524;28;20036;-65
2021/05/02 09:38:38;;;;;;;31.35;21.13;;;;;;;12.91;62.44;100949.44;5090066;28;20036;-65
2021/05/02 09:41:04;;;;;;;32.20;20.40;;;;;;;13.34;59.73;100957.19;5090252;28;20091;-65
2021/05/02 09:43:32;;;;;;;27.05;19.40;;;;;;;14.09;59.45;100959.19;5090067;28;20460;-65
2021/05/02 09:46:23;;;;;;;31.60;21.33;;;;;;;14.36;57.28;100960.47;5090159;28;20032;-65
2021/05/02 09:48:49;;;;;;;30.15;20.38;;;;;;;13.29;59.70;100963.06;5072265;28;20093;-65
2021/05/02 09:51:14;;;;;;;31.85;21.33;;;;;;;12.97;60.57;100959.50;5072312;28;20036;-65
2021/05/02 09:53:40;;;;;;;28.37;20.40;;;;;;;12.49;61.11;100968.47;5072451;28;20040;-65
2021/05/02 09:56:14;;;;;;;31.17;20.80;;;;;;;12.38;60.40;100964.28;5090326;28;20049;-65
2021/05/02 09:58:40;;;;;;;28.48;20.48;;;;;;;12.29;61.95;100965.31;5071937;28;20040;-65
2021/05/02 10:01:06;;;;;;;34.53;22.37;;;;;;;12.20;62.93;100967.16;5072541;28;20036;-65
2021/05/02 10:03:32;;;;;;;32.65;21.23;;;;;;;12.03;62.89;100963.63;5090255;28;20036;-65
2021/05/02 10:06:08;;;;;;;29.37;20.97;;;;;;;12.32;62.91;100959.63;5090209;28;20042;-65
2021/05/02 10:08:35;;;;;;;32.20;22.52;;;;;;;12.74;62.41;100958.56;5072051;28;20101;-65
2021/05/02 10:11:04;;;;;;;32.90;23.23;;;;;;;12.48;62.46;100959.63;5089611;28;20032;-67
2021/05/02 10:13:29;;;;;;;32.20;21.88;;;;;;;12.55;61.67;100957.06;5089906;28;20051;-65
2021/05/02 10:15:57;;;;;;;36.13;23.58;;;;;;;12.42;61.10;100949.56;5072174;28;20028;-65
2021/05/02 10:18:22;;;;;;;32.78;22.65;;;;;;;12.45;60.26;100950.09;5089712;28;20036;-65
2021/05/02 10:20:49;;;;;;;30.57;20.07;;;;;;;12.62;60.98;100952.72;5090066;28;20509;-65
2021/05/02 10:23:16;;;;;;;31.48;20.38;;;;;;;12.87;58.99;100953.47;5089892;28;20097;-65
2021/05/02 10:25:42;;;;;;;28.27;19.52;;;;;;;14.44;57.03;100956.88;5072854;28;20116;-65
2021/05/02 10:28:08;;;;;;;;;;;;;;;15.69;53.48;100948.00;5093737;28;20358;-65
2021/05/02 10:30:41;;;;;;;;;;;;;;;16.58;50.75;100939.47;5076242;28;19916;-65
2021/05/02 10:33:09;;;;;;;26.73;19.15;;;;;;;15.74;50.99;100942.91;5075723;28;19916;-65
2021/05/02 10:35:42;;;;;;;28.40;19.52;;;;;;;16.35;50.49;100945.09;5075632;28;20074;-65
2021/05/02 10:38:07;;;;;;;30.60;19.15;;;;;;;15.38;50.77;100951.78;5075205;28;20588;-66
2021/05/02 10:40:32;;;;;;;28.93;20.17;;;;;;;14.71;52.95;100953.59;5093420;28;20050;-65
2021/05/02 10:43:03;;;;;;;29.93;20.33;;;;;;;13.59;54.35;100947.97;5075379;28;20024;-65
2021/05/02 10:45:35;;;;;;;30.92;21.20;;;;;;;13.53;56.72;100954.03;5093415;28;20032;-65
2021/05/02 10:48:06;;;;;;;33.50;22.08;;;;;;;12.60;59.40;100960.09;5093085;28;20136;-65
2021/05/02 10:50:43;;;;;;;30.77;20.52;;;;;;;12.49;58.92;100953.25;5093251;28;20090;-65
2021/05/02 10:53:16;;;;;;;30.63;20.63;;;;;;;11.86;61.10;100959.25;5075502;28;20032;-65
2021/05/02 10:55:51;;;;;;;33.72;21.42;;;;;;;12.44;60.17;100953.75;5075373;28;20031;-65
2021/05/02 10:58:38;;;;;;;29.30;19.70;;;;;;;12.21;60.46;100961.63;5075107;28;20122;-65
2021/05/02 11:01:09;;;;;;;28.50;19.65;;;;;;;11.39;61.64;100960.66;5075221;28;20074;-65
2021/05/02 11:03:37;;;;;;;31.40;19.85;;;;;;;11.55;60.18;100949.19;5093013;28;20028;-65
2021/05/02 11:06:07;;;;;;;31.45;21.98;;;;;;;11.29;60.68;100952.78;5075112;28;20036;-65
2021/05/02 11:08:49;;;;;;;24.88;17.50;;;;;;;11.18;59.27;100945.88;5074802;28;20032;-65
2021/05/02 11:11:33;;;;;;;24.25;15.88;;;;;;;11.97;58.31;100946.41;5074764;28;20058;-65
2021/05/02 11:14:10;;;;;;;24.45;16.52;;;;;;;12.27;55.86;100946.75;5092768;28;20309;-65
2021/05/02 11:16:49;;;;;;;24.83;16.85;;;;;;;12.18;55.75;100937.88;5092713;28;20048;-65
2021/05/02 11:19:19;;;;;;;24.98;16.73;;;;;;;11.63;56.30;100946.50;5092480;28;20081;-65
2021/05/02 11:21:48;;;;;;;21.50;15.68;;;;;;;12.03;56.71;100940.41;5074851;28;20399;-65